Pagrindinis puslapis
METAR-TAF:

METAR-TAF

Oro uostai :

Prezidente Prudentė, San Paulas, Brazilija

platuma: 22-07S, ilguma: 051-23W, Aukštis: 436 m

Dabartinis oras

Ataskaita buvo paskelbta 55 minutes, ne 04:00 UTC
Vėjas 9 kt iš Rytų
Temperatūra 20°C
Drėgmė 88%
Slėgis 1014 hPa
Matomumas 10 km arba daugiau
Išsisklaidę debesys ne aukštis 4500 ft
Apsiniaukę ne aukštis 8300 ft

METAR: SBDN 070400Z 09009KT 9999 SCT045 OVC083 20/18 Q1014

Laikas: 01:55 (04:55 UTC)

Prognozė

Ataskaita buvo paskelbta 7 valandos ir 55 minutes, ne 21:00 UTC
Prognozė galioja nuo 07 metu 00 UTC su 07 metu 12 UTC
Vėjas 5 kt iš Rytų/Šiaurės Rytų
Matomumas 10 km arba daugiau
nėra debesų žemiau 1500 m ir nėra kamuolinių lietaus debesų

TAF: SBDN 062100Z 0700/0712 07005KT CAVOK TX25/0700Z TN21/0707Z RMK PCZ

Orai ataskaitas ir orų prognozės (METAR, TAF).

turimą stotys yra geltonos ir raudonos taškus žemėlapyje.

Perkelti pele per norėdami pamatyti stoties vardą.

Tada spustelėkite, norėdami matyti oro stebėjimo ir prognozės.

Norėdami pakeisti žemėlapį: spustelėkite ant žalios mygtukų su juodo kryžiaus žemyn,; žalią mygtuką su brūkšneliu, jei norite nutolinti; arba žalių rodyklių gretimoms žemėlapius.


METAR-TAF: